sensor_id;sensor_type;location;lat;lon;timestamp;temperature;humidity
15969;DHT22;8085;53.472;9.794;2023-04-25T00:01:23;7.60;99.90
15969;DHT22;8085;53.472;9.794;2023-04-25T00:03:50;7.50;99.90
15969;DHT22;8085;53.472;9.794;2023-04-25T00:06:17;7.50;99.90
15969;DHT22;8085;53.472;9.794;2023-04-25T00:08:44;7.50;99.90
15969;DHT22;8085;53.472;9.794;2023-04-25T00:11:12;7.40;99.90
15969;DHT22;8085;53.472;9.794;2023-04-25T00:13:39;7.40;99.90
15969;DHT22;8085;53.472;9.794;2023-04-25T00:16:07;7.40;99.90
15969;DHT22;8085;53.472;9.794;2023-04-25T00:18:34;7.40;99.90
15969;DHT22;8085;53.472;9.794;2023-04-25T00:21:01;7.30;99.90
15969;DHT22;8085;53.472;9.794;2023-04-25T00:23:31;7.30;99.90
15969;DHT22;8085;53.472;9.794;2023-04-25T00:25:58;7.30;99.90
15969;DHT22;8085;53.472;9.794;2023-04-25T00:28:27;7.30;99.90
15969;DHT22;8085;53.472;9.794;2023-04-25T00:30:53;7.30;99.90
15969;DHT22;8085;53.472;9.794;2023-04-25T00:33:20;7.30;99.90
15969;DHT22;8085;53.472;9.794;2023-04-25T00:35:47;7.30;99.90
15969;DHT22;8085;53.472;9.794;2023-04-25T00:38:14;7.20;99.90
15969;DHT22;8085;53.472;9.794;2023-04-25T00:40:41;7.30;99.90
15969;DHT22;8085;53.472;9.794;2023-04-25T00:43:09;7.30;99.90
15969;DHT22;8085;53.472;9.794;2023-04-25T00:45:38;7.30;99.90
15969;DHT22;8085;53.472;9.794;2023-04-25T00:48:06;7.30;99.90
15969;DHT22;8085;53.472;9.794;2023-04-25T00:50:33;7.20;99.90
15969;DHT22;8085;53.472;9.794;2023-04-25T00:53:00;7.10;99.90
15969;DHT22;8085;53.472;9.794;2023-04-25T00:55:28;7.10;99.90
15969;DHT22;8085;53.472;9.794;2023-04-25T00:57:57;7.10;99.90
15969;DHT22;8085;53.472;9.794;2023-04-25T01:00:24;7.00;99.90
15969;DHT22;8085;53.472;9.794;2023-04-25T01:02:52;7.00;99.90
15969;DHT22;8085;53.472;9.794;2023-04-25T01:05:19;7.00;99.90
15969;DHT22;8085;53.472;9.794;2023-04-25T01:07:46;7.00;99.90
15969;DHT22;8085;53.472;9.794;2023-04-25T01:10:14;6.90;99.90
15969;DHT22;8085;53.472;9.794;2023-04-25T01:12:41;6.90;99.90
15969;DHT22;8085;53.472;9.794;2023-04-25T01:15:08;6.90;99.90
15969;DHT22;8085;53.472;9.794;2023-04-25T01:17:35;6.90;99.90
15969;DHT22;8085;53.472;9.794;2023-04-25T01:20:05;6.80;99.90
15969;DHT22;8085;53.472;9.794;2023-04-25T01:22:36;6.80;99.90
15969;DHT22;8085;53.472;9.794;2023-04-25T01:25:04;6.80;99.90
15969;DHT22;8085;53.472;9.794;2023-04-25T01:27:31;6.80;99.90
15969;DHT22;8085;53.472;9.794;2023-04-25T01:29:59;6.70;99.90
15969;DHT22;8085;53.472;9.794;2023-04-25T01:32:26;6.70;99.90
15969;DHT22;8085;53.472;9.794;2023-04-25T01:34:53;6.70;99.90
15969;DHT22;8085;53.472;9.794;2023-04-25T01:37:20;6.70;99.90
15969;DHT22;8085;53.472;9.794;2023-04-25T01:39:49;6.70;99.90
15969;DHT22;8085;53.472;9.794;2023-04-25T01:42:16;6.70;99.90
15969;DHT22;8085;53.472;9.794;2023-04-25T01:44:43;6.70;99.90
15969;DHT22;8085;53.472;9.794;2023-04-25T01:47:10;6.60;99.90
15969;DHT22;8085;53.472;9.794;2023-04-25T01:49:37;6.60;99.90
15969;DHT22;8085;53.472;9.794;2023-04-25T01:52:04;6.60;99.90
15969;DHT22;8085;53.472;9.794;2023-04-25T01:54:31;6.60;99.90
15969;DHT22;8085;53.472;9.794;2023-04-25T01:56:59;6.60;99.90
15969;DHT22;8085;53.472;9.794;2023-04-25T01:59:27;6.60;99.90
15969;DHT22;8085;53.472;9.794;2023-04-25T02:01:54;6.60;99.90
15969;DHT22;8085;53.472;9.794;2023-04-25T02:04:21;6.50;99.90
15969;DHT22;8085;53.472;9.794;2023-04-25T02:06:48;6.50;99.90
15969;DHT22;8085;53.472;9.794;2023-04-25T02:09:15;6.50;99.90
15969;DHT22;8085;53.472;9.794;2023-04-25T02:11:41;6.50;99.90
15969;DHT22;8085;53.472;9.794;2023-04-25T02:14:10;6.50;99.90
15969;DHT22;8085;53.472;9.794;2023-04-25T02:16:37;6.50;99.90
15969;DHT22;8085;53.472;9.794;2023-04-25T02:19:05;6.50;99.90
15969;DHT22;8085;53.472;9.794;2023-04-25T02:21:32;6.40;99.90
15969;DHT22;8085;53.472;9.794;2023-04-25T02:24:01;6.40;99.90
15969;DHT22;8085;53.472;9.794;2023-04-25T02:26:28;6.40;99.90
15969;DHT22;8085;53.472;9.794;2023-04-25T02:28:56;6.40;99.90
15969;DHT22;8085;53.472;9.794;2023-04-25T02:31:25;6.40;99.90
15969;DHT22;8085;53.472;9.794;2023-04-25T02:33:52;6.40;99.90
15969;DHT22;8085;53.472;9.794;2023-04-25T02:36:21;6.40;99.90
15969;DHT22;8085;53.472;9.794;2023-04-25T02:38:48;6.40;99.90
15969;DHT22;8085;53.472;9.794;2023-04-25T02:41:14;6.40;99.90
15969;DHT22;8085;53.472;9.794;2023-04-25T02:43:41;6.40;99.90
15969;DHT22;8085;53.472;9.794;2023-04-25T02:46:08;6.30;99.90
15969;DHT22;8085;53.472;9.794;2023-04-25T02:48:37;6.40;99.90
15969;DHT22;8085;53.472;9.794;2023-04-25T02:51:04;6.30;99.90
15969;DHT22;8085;53.472;9.794;2023-04-25T02:53:31;6.30;99.90
15969;DHT22;8085;53.472;9.794;2023-04-25T02:55:57;6.30;99.90
15969;DHT22;8085;53.472;9.794;2023-04-25T02:58:24;6.20;99.90
15969;DHT22;8085;53.472;9.794;2023-04-25T03:00:51;6.30;99.90
15969;DHT22;8085;53.472;9.794;2023-04-25T03:03:18;6.20;99.90
15969;DHT22;8085;53.472;9.794;2023-04-25T03:05:48;6.20;99.90
15969;DHT22;8085;53.472;9.794;2023-04-25T03:08:16;6.20;99.90
15969;DHT22;8085;53.472;9.794;2023-04-25T03:10:43;6.10;99.90
15969;DHT22;8085;53.472;9.794;2023-04-25T03:13:10;6.10;99.90
15969;DHT22;8085;53.472;9.794;2023-04-25T03:15:39;6.10;99.90
15969;DHT22;8085;53.472;9.794;2023-04-25T03:18:05;6.00;99.90
15969;DHT22;8085;53.472;9.794;2023-04-25T03:20:32;5.90;99.90
15969;DHT22;8085;53.472;9.794;2023-04-25T03:23:01;5.90;99.90
15969;DHT22;8085;53.472;9.794;2023-04-25T03:25:28;5.90;99.90
15969;DHT22;8085;53.472;9.794;2023-04-25T03:27:55;5.80;99.90
15969;DHT22;8085;53.472;9.794;2023-04-25T03:30:22;5.80;99.90
15969;DHT22;8085;53.472;9.794;2023-04-25T03:32:49;5.70;99.90
15969;DHT22;8085;53.472;9.794;2023-04-25T03:35:16;5.60;99.90
15969;DHT22;8085;53.472;9.794;2023-04-25T03:37:43;5.60;99.90
15969;DHT22;8085;53.472;9.794;2023-04-25T03:40:12;5.60;99.90
15969;DHT22;8085;53.472;9.794;2023-04-25T03:42:39;5.60;99.90
15969;DHT22;8085;53.472;9.794;2023-04-25T03:45:09;5.60;99.90
15969;DHT22;8085;53.472;9.794;2023-04-25T03:47:36;5.60;99.90
15969;DHT22;8085;53.472;9.794;2023-04-25T03:50:04;5.60;99.90
15969;DHT22;8085;53.472;9.794;2023-04-25T03:52:31;5.60;99.90
15969;DHT22;8085;53.472;9.794;2023-04-25T03:54:58;5.60;99.90
15969;DHT22;8085;53.472;9.794;2023-04-25T03:57:26;5.60;99.90
15969;DHT22;8085;53.472;9.794;2023-04-25T03:59:53;5.50;99.90
15969;DHT22;8085;53.472;9.794;2023-04-25T04:02:20;5.60;99.90
15969;DHT22;8085;53.472;9.794;2023-04-25T04:04:47;5.50;99.90
15969;DHT22;8085;53.472;9.794;2023-04-25T04:07:14;5.50;99.90
15969;DHT22;8085;53.472;9.794;2023-04-25T04:09:41;5.50;99.90
15969;DHT22;8085;53.472;9.794;2023-04-25T04:12:07;5.60;99.90
15969;DHT22;8085;53.472;9.794;2023-04-25T04:14:36;5.50;99.90
15969;DHT22;8085;53.472;9.794;2023-04-25T04:17:02;5.50;99.90
15969;DHT22;8085;53.472;9.794;2023-04-25T04:19:29;5.50;99.90
15969;DHT22;8085;53.472;9.794;2023-04-25T04:21:56;5.50;99.90
15969;DHT22;8085;53.472;9.794;2023-04-25T04:24:23;5.50;99.90
15969;DHT22;8085;53.472;9.794;2023-04-25T04:26:50;5.50;99.90
15969;DHT22;8085;53.472;9.794;2023-04-25T04:29:17;5.50;99.90
15969;DHT22;8085;53.472;9.794;2023-04-25T04:31:49;5.50;99.90
15969;DHT22;8085;53.472;9.794;2023-04-25T04:34:16;5.60;99.90
15969;DHT22;8085;53.472;9.794;2023-04-25T04:36:43;5.50;99.90
15969;DHT22;8085;53.472;9.794;2023-04-25T04:39:11;5.50;99.90
15969;DHT22;8085;53.472;9.794;2023-04-25T04:41:38;5.50;99.90
15969;DHT22;8085;53.472;9.794;2023-04-25T04:44:06;5.60;99.90
15969;DHT22;8085;53.472;9.794;2023-04-25T04:46:34;5.60;99.90
15969;DHT22;8085;53.472;9.794;2023-04-25T04:49:04;5.60;99.90
15969;DHT22;8085;53.472;9.794;2023-04-25T04:51:31;5.70;99.90
15969;DHT22;8085;53.472;9.794;2023-04-25T04:53:58;5.70;99.90
15969;DHT22;8085;53.472;9.794;2023-04-25T04:56:28;5.80;99.90
15969;DHT22;8085;53.472;9.794;2023-04-25T04:58:56;5.70;99.90
15969;DHT22;8085;53.472;9.794;2023-04-25T05:01:23;5.80;99.90
15969;DHT22;8085;53.472;9.794;2023-04-25T05:03:51;5.80;99.90
15969;DHT22;8085;53.472;9.794;2023-04-25T05:06:19;5.80;99.90
15969;DHT22;8085;53.472;9.794;2023-04-25T05:08:46;5.80;99.90
15969;DHT22;8085;53.472;9.794;2023-04-25T05:11:13;5.70;99.90
15969;DHT22;8085;53.472;9.794;2023-04-25T05:13:40;5.80;99.90
15969;DHT22;8085;53.472;9.794;2023-04-25T05:16:07;5.80;99.90
15969;DHT22;8085;53.472;9.794;2023-04-25T05:18:34;5.80;99.90
15969;DHT22;8085;53.472;9.794;2023-04-25T05:21:01;5.80;99.90
15969;DHT22;8085;53.472;9.794;2023-04-25T05:23:40;5.80;99.90
15969;DHT22;8085;53.472;9.794;2023-04-25T05:26:08;5.80;99.90
15969;DHT22;8085;53.472;9.794;2023-04-25T05:28:39;5.80;99.90
15969;DHT22;8085;53.472;9.794;2023-04-25T05:31:06;5.80;99.90
15969;DHT22;8085;53.472;9.794;2023-04-25T05:33:33;5.80;99.90
15969;DHT22;8085;53.472;9.794;2023-04-25T05:36:00;5.80;99.90
15969;DHT22;8085;53.472;9.794;2023-04-25T05:38:27;5.80;99.90
15969;DHT22;8085;53.472;9.794;2023-04-25T05:40:57;5.80;99.90
15969;DHT22;8085;53.472;9.794;2023-04-25T05:43:26;5.90;99.90
15969;DHT22;8085;53.472;9.794;2023-04-25T05:45:53;5.90;99.90
15969;DHT22;8085;53.472;9.794;2023-04-25T05:48:20;5.90;99.90
15969;DHT22;8085;53.472;9.794;2023-04-25T05:50:47;6.00;99.90
15969;DHT22;8085;53.472;9.794;2023-04-25T05:53:14;6.00;99.90
15969;DHT22;8085;53.472;9.794;2023-04-25T05:55:40;6.00;99.90
15969;DHT22;8085;53.472;9.794;2023-04-25T05:58:09;6.00;99.90
15969;DHT22;8085;53.472;9.794;2023-04-25T06:00:36;6.00;99.90
15969;DHT22;8085;53.472;9.794;2023-04-25T06:03:03;6.00;99.90
15969;DHT22;8085;53.472;9.794;2023-04-25T06:05:30;6.00;99.90
15969;DHT22;8085;53.472;9.794;2023-04-25T06:07:57;6.10;99.90
15969;DHT22;8085;53.472;9.794;2023-04-25T06:10:24;6.20;99.90
15969;DHT22;8085;53.472;9.794;2023-04-25T06:12:51;6.20;99.90
15969;DHT22;8085;53.472;9.794;2023-04-25T06:15:19;6.20;99.90
15969;DHT22;8085;53.472;9.794;2023-04-25T06:17:46;6.20;99.90
15969;DHT22;8085;53.472;9.794;2023-04-25T06:20:14;6.30;99.90
15969;DHT22;8085;53.472;9.794;2023-04-25T06:22:41;6.20;99.90
15969;DHT22;8085;53.472;9.794;2023-04-25T06:25:11;6.20;99.90
15969;DHT22;8085;53.472;9.794;2023-04-25T06:27:38;6.20;99.90
15969;DHT22;8085;53.472;9.794;2023-04-25T06:30:06;6.10;99.90
15969;DHT22;8085;53.472;9.794;2023-04-25T06:32:34;6.00;99.90
15969;DHT22;8085;53.472;9.794;2023-04-25T06:35:01;6.00;99.90
15969;DHT22;8085;53.472;9.794;2023-04-25T06:37:28;6.00;99.90
15969;DHT22;8085;53.472;9.794;2023-04-25T06:39:55;6.10;99.90
15969;DHT22;8085;53.472;9.794;2023-04-25T06:42:22;6.20;99.90
15969;DHT22;8085;53.472;9.794;2023-04-25T06:44:49;6.20;99.90
15969;DHT22;8085;53.472;9.794;2023-04-25T06:47:16;6.20;99.90
15969;DHT22;8085;53.472;9.794;2023-04-25T06:49:44;6.30;99.90
15969;DHT22;8085;53.472;9.794;2023-04-25T06:52:11;6.50;99.90
15969;DHT22;8085;53.472;9.794;2023-04-25T06:54:38;6.50;99.90
15969;DHT22;8085;53.472;9.794;2023-04-25T06:57:05;6.50;99.90
15969;DHT22;8085;53.472;9.794;2023-04-25T06:59:32;6.50;99.90
15969;DHT22;8085;53.472;9.794;2023-04-25T07:01:59;6.60;99.90
15969;DHT22;8085;53.472;9.794;2023-04-25T07:04:27;6.60;99.90
15969;DHT22;8085;53.472;9.794;2023-04-25T07:06:56;6.60;99.90
15969;DHT22;8085;53.472;9.794;2023-04-25T07:09:23;6.70;99.90
15969;DHT22;8085;53.472;9.794;2023-04-25T07:11:50;6.60;99.90
15969;DHT22;8085;53.472;9.794;2023-04-25T07:14:17;6.50;99.90
15969;DHT22;8085;53.472;9.794;2023-04-25T07:16:44;6.70;99.90
15969;DHT22;8085;53.472;9.794;2023-04-25T07:19:11;6.70;99.90
15969;DHT22;8085;53.472;9.794;2023-04-25T07:21:38;6.70;99.90
15969;DHT22;8085;53.472;9.794;2023-04-25T07:24:07;6.80;99.90
15969;DHT22;8085;53.472;9.794;2023-04-25T07:26:33;6.80;99.90
15969;DHT22;8085;53.472;9.794;2023-04-25T07:29:00;6.80;99.90
15969;DHT22;8085;53.472;9.794;2023-04-25T07:31:27;6.70;99.90
15969;DHT22;8085;53.472;9.794;2023-04-25T07:33:54;6.70;99.90
15969;DHT22;8085;53.472;9.794;2023-04-25T07:36:21;6.80;99.90
15969;DHT22;8085;53.472;9.794;2023-04-25T07:38:48;6.90;99.90
15969;DHT22;8085;53.472;9.794;2023-04-25T07:41:16;7.10;97.10
15969;DHT22;8085;53.472;9.794;2023-04-25T07:43:43;7.20;85.90
15969;DHT22;8085;53.472;9.794;2023-04-25T07:46:10;7.40;74.90
15969;DHT22;8085;53.472;9.794;2023-04-25T07:48:41;7.60;1.00
15969;DHT22;8085;53.472;9.794;2023-04-25T07:51:07;7.70;1.00
15969;DHT22;8085;53.472;9.794;2023-04-25T07:53:37;7.80;1.00
15969;DHT22;8085;53.472;9.794;2023-04-25T07:56:04;7.80;1.00
15969;DHT22;8085;53.472;9.794;2023-04-25T07:58:33;7.80;1.00
15969;DHT22;8085;53.472;9.794;2023-04-25T08:01:00;7.90;1.00
15969;DHT22;8085;53.472;9.794;2023-04-25T08:03:27;7.80;1.00
15969;DHT22;8085;53.472;9.794;2023-04-25T08:05:54;7.90;1.00
15969;DHT22;8085;53.472;9.794;2023-04-25T08:08:21;8.00;1.00
15969;DHT22;8085;53.472;9.794;2023-04-25T08:10:48;8.10;1.00
15969;DHT22;8085;53.472;9.794;2023-04-25T08:13:15;8.20;1.00
15969;DHT22;8085;53.472;9.794;2023-04-25T08:15:43;8.30;1.00
15969;DHT22;8085;53.472;9.794;2023-04-25T08:18:10;8.30;1.00
15969;DHT22;8085;53.472;9.794;2023-04-25T08:20:37;8.40;1.00
15969;DHT22;8085;53.472;9.794;2023-04-25T08:23:04;8.20;1.00
15969;DHT22;8085;53.472;9.794;2023-04-25T08:25:31;8.20;99.90
15969;DHT22;8085;53.472;9.794;2023-04-25T08:27:58;8.30;1.00
15969;DHT22;8085;53.472;9.794;2023-04-25T08:30:28;8.30;1.00
15969;DHT22;8085;53.472;9.794;2023-04-25T08:32:58;8.40;99.90
15969;DHT22;8085;53.472;9.794;2023-04-25T08:35:25;8.40;99.90
15969;DHT22;8085;53.472;9.794;2023-04-25T08:37:52;8.30;1.00
15969;DHT22;8085;53.472;9.794;2023-04-25T08:40:22;8.60;1.00
15969;DHT22;8085;53.472;9.794;2023-04-25T08:42:53;9.10;1.00
15969;DHT22;8085;53.472;9.794;2023-04-25T08:45:21;9.20;99.90
15969;DHT22;8085;53.472;9.794;2023-04-25T08:47:51;9.00;99.90
15969;DHT22;8085;53.472;9.794;2023-04-25T08:50:21;9.00;1.00
15969;DHT22;8085;53.472;9.794;2023-04-25T08:52:50;9.30;99.90
15969;DHT22;8085;53.472;9.794;2023-04-25T08:55:18;9.50;37.60
15969;DHT22;8085;53.472;9.794;2023-04-25T08:57:47;9.40;1.00
15969;DHT22;8085;53.472;9.794;2023-04-25T09:00:16;8.90;99.90
15969;DHT22;8085;53.472;9.794;2023-04-25T09:02:49;8.10;1.00
15969;DHT22;8085;53.472;9.794;2023-04-25T09:05:16;7.10;1.00
15969;DHT22;8085;53.472;9.794;2023-04-25T09:07:45;6.40;18.80
15969;DHT22;8085;53.472;9.794;2023-04-25T09:10:12;6.30;27.90
15969;DHT22;8085;53.472;9.794;2023-04-25T09:12:39;6.10;64.90
15969;DHT22;8085;53.472;9.794;2023-04-25T09:15:11;6.00;68.70
15969;DHT22;8085;53.472;9.794;2023-04-25T09:17:41;6.10;71.60
15969;DHT22;8085;53.472;9.794;2023-04-25T09:20:12;6.00;32.20
15969;DHT22;8085;53.472;9.794;2023-04-25T09:22:39;6.10;52.40
15969;DHT22;8085;53.472;9.794;2023-04-25T09:25:12;6.20;72.50
15969;DHT22;8085;53.472;9.794;2023-04-25T09:27:49;6.30;46.80
15969;DHT22;8085;53.472;9.794;2023-04-25T09:30:17;6.60;48.20
15969;DHT22;8085;53.472;9.794;2023-04-25T09:32:45;7.00;1.00
15969;DHT22;8085;53.472;9.794;2023-04-25T09:35:23;7.40;1.00
15969;DHT22;8085;53.472;9.794;2023-04-25T09:37:51;8.00;1.00
15969;DHT22;8085;53.472;9.794;2023-04-25T09:40:19;8.70;1.00
15969;DHT22;8085;53.472;9.794;2023-04-25T09:42:46;9.00;1.00
15969;DHT22;8085;53.472;9.794;2023-04-25T09:45:13;8.80;1.00
15969;DHT22;8085;53.472;9.794;2023-04-25T09:47:41;8.70;1.00
15969;DHT22;8085;53.472;9.794;2023-04-25T09:50:19;8.10;1.00
15969;DHT22;8085;53.472;9.794;2023-04-25T09:53:03;7.40;1.00
15969;DHT22;8085;53.472;9.794;2023-04-25T09:55:34;7.10;1.00
15969;DHT22;8085;53.472;9.794;2023-04-25T09:58:05;7.30;1.00
15969;DHT22;8085;53.472;9.794;2023-04-25T10:00:33;7.50;1.00
15969;DHT22;8085;53.472;9.794;2023-04-25T10:03:01;7.70;1.00
15969;DHT22;8085;53.472;9.794;2023-04-25T10:05:32;8.00;1.00
15969;DHT22;8085;53.472;9.794;2023-04-25T10:08:02;8.20;1.00
15969;DHT22;8085;53.472;9.794;2023-04-25T10:10:34;8.50;1.00
15969;DHT22;8085;53.472;9.794;2023-04-25T10:13:05;8.50;1.00
15969;DHT22;8085;53.472;9.794;2023-04-25T10:15:34;9.30;1.00
15969;DHT22;8085;53.472;9.794;2023-04-25T10:18:02;9.50;99.90
15969;DHT22;8085;53.472;9.794;2023-04-25T10:20:30;10.00;99.90
15969;DHT22;8085;53.472;9.794;2023-04-25T10:23:13;9.80;1.00
15969;DHT22;8085;53.472;9.794;2023-04-25T10:25:42;10.10;1.00
15969;DHT22;8085;53.472;9.794;2023-04-25T10:28:11;10.50;28.60
15969;DHT22;8085;53.472;9.794;2023-04-25T10:30:56;10.60;1.00
15969;DHT22;8085;53.472;9.794;2023-04-25T10:33:30;9.90;1.00
15969;DHT22;8085;53.472;9.794;2023-04-25T10:36:14;9.10;1.00
15969;DHT22;8085;53.472;9.794;2023-04-25T10:38:43;8.10;1.00
15969;DHT22;8085;53.472;9.794;2023-04-25T10:41:13;7.80;1.00
15969;DHT22;8085;53.472;9.794;2023-04-25T10:43:41;7.60;1.00
15969;DHT22;8085;53.472;9.794;2023-04-25T10:46:16;7.60;1.00
15969;DHT22;8085;53.472;9.794;2023-04-25T10:48:46;7.50;1.00
15969;DHT22;8085;53.472;9.794;2023-04-25T10:51:22;7.30;1.00
15969;DHT22;8085;53.472;9.794;2023-04-25T10:54:00;6.90;1.00
15969;DHT22;8085;53.472;9.794;2023-04-25T10:56:30;6.70;1.00
15969;DHT22;8085;53.472;9.794;2023-04-25T10:59:07;6.90;1.00
15969;DHT22;8085;53.472;9.794;2023-04-25T11:01:37;7.10;1.00
15969;DHT22;8085;53.472;9.794;2023-04-25T11:04:05;7.30;1.00
15969;DHT22;8085;53.472;9.794;2023-04-25T11:07:03;7.60;1.00
15969;DHT22;8085;53.472;9.794;2023-04-25T11:09:32;7.90;1.00
15969;DHT22;8085;53.472;9.794;2023-04-25T11:12:06;8.30;1.00
15969;DHT22;8085;53.472;9.794;2023-04-25T11:14:34;8.50;1.00
15969;DHT22;8085;53.472;9.794;2023-04-25T11:17:01;8.70;99.90
15969;DHT22;8085;53.472;9.794;2023-04-25T11:19:29;8.80;1.00
15969;DHT22;8085;53.472;9.794;2023-04-25T11:21:56;9.00;1.00
15969;DHT22;8085;53.472;9.794;2023-04-25T11:24:26;9.30;1.00
15969;DHT22;8085;53.472;9.794;2023-04-25T11:26:53;9.70;1.00
15969;DHT22;8085;53.472;9.794;2023-04-25T11:29:23;10.20;1.00
15969;DHT22;8085;53.472;9.794;2023-04-25T11:31:54;10.90;1.00
15969;DHT22;8085;53.472;9.794;2023-04-25T11:34:22;11.30;99.90
15969;DHT22;8085;53.472;9.794;2023-04-25T11:36:50;11.60;99.90
15969;DHT22;8085;53.472;9.794;2023-04-25T11:39:18;11.40;1.00
15969;DHT22;8085;53.472;9.794;2023-04-25T11:41:45;11.00;1.00
15969;DHT22;8085;53.472;9.794;2023-04-25T11:44:15;10.40;1.00
15969;DHT22;8085;53.472;9.794;2023-04-25T11:46:45;10.10;1.00
15969;DHT22;8085;53.472;9.794;2023-04-25T11:49:12;10.00;1.00
15969;DHT22;8085;53.472;9.794;2023-04-25T11:51:43;9.80;1.00
15969;DHT22;8085;53.472;9.794;2023-04-25T11:54:10;9.60;1.00
15969;DHT22;8085;53.472;9.794;2023-04-25T11:56:37;9.60;1.00
15969;DHT22;8085;53.472;9.794;2023-04-25T11:59:07;9.60;1.00
15969;DHT22;8085;53.472;9.794;2023-04-25T12:01:36;9.40;99.90
15969;DHT22;8085;53.472;9.794;2023-04-25T12:04:15;9.60;99.90
15969;DHT22;8085;53.472;9.794;2023-04-25T12:06:43;9.80;1.00
15969;DHT22;8085;53.472;9.794;2023-04-25T12:09:12;10.10;99.90
15969;DHT22;8085;53.472;9.794;2023-04-25T12:11:43;10.00;96.00
15969;DHT22;8085;53.472;9.794;2023-04-25T12:14:10;10.10;99.90
15969;DHT22;8085;53.472;9.794;2023-04-25T12:16:46;10.70;1.00
15969;DHT22;8085;53.472;9.794;2023-04-25T12:19:15;11.10;1.00
15969;DHT22;8085;53.472;9.794;2023-04-25T12:21:43;10.90;1.00
15969;DHT22;8085;53.472;9.794;2023-04-25T12:24:12;10.40;1.00
15969;DHT22;8085;53.472;9.794;2023-04-25T12:26:47;10.00;33.80
15969;DHT22;8085;53.472;9.794;2023-04-25T12:29:21;9.30;1.00
15969;DHT22;8085;53.472;9.794;2023-04-25T12:31:53;8.40;1.00
15969;DHT22;8085;53.472;9.794;2023-04-25T12:34:22;8.00;1.00
15969;DHT22;8085;53.472;9.794;2023-04-25T12:36:50;8.10;99.90
15969;DHT22;8085;53.472;9.794;2023-04-25T12:39:18;8.70;1.00
15969;DHT22;8085;53.472;9.794;2023-04-25T12:41:45;9.50;1.00
15969;DHT22;8085;53.472;9.794;2023-04-25T12:44:13;9.60;90.60
15969;DHT22;8085;53.472;9.794;2023-04-25T12:46:41;9.60;1.00
15969;DHT22;8085;53.472;9.794;2023-04-25T12:49:08;9.70;99.90
15969;DHT22;8085;53.472;9.794;2023-04-25T12:51:37;9.70;1.00
15969;DHT22;8085;53.472;9.794;2023-04-25T12:54:05;9.60;1.00
15969;DHT22;8085;53.472;9.794;2023-04-25T12:56:32;9.60;99.90
15969;DHT22;8085;53.472;9.794;2023-04-25T12:58:59;10.00;99.90
15969;DHT22;8085;53.472;9.794;2023-04-25T13:01:26;10.30;1.00
15969;DHT22;8085;53.472;9.794;2023-04-25T13:03:53;10.50;99.90
15969;DHT22;8085;53.472;9.794;2023-04-25T13:06:21;10.60;99.90
15969;DHT22;8085;53.472;9.794;2023-04-25T13:08:49;10.90;1.00
15969;DHT22;8085;53.472;9.794;2023-04-25T13:11:16;11.30;95.50
15969;DHT22;8085;53.472;9.794;2023-04-25T13:13:44;11.40;99.90
15969;DHT22;8085;53.472;9.794;2023-04-25T13:16:11;10.90;99.90
15969;DHT22;8085;53.472;9.794;2023-04-25T13:18:39;10.80;1.00
15969;DHT22;8085;53.472;9.794;2023-04-25T13:21:07;10.00;46.50
15969;DHT22;8085;53.472;9.794;2023-04-25T13:23:36;10.00;99.90
15969;DHT22;8085;53.472;9.794;2023-04-25T13:26:05;9.80;99.90
15969;DHT22;8085;53.472;9.794;2023-04-25T13:28:31;9.80;87.20
15969;DHT22;8085;53.472;9.794;2023-04-25T13:30:58;9.60;99.90
15969;DHT22;8085;53.472;9.794;2023-04-25T13:33:25;9.60;99.90
15969;DHT22;8085;53.472;9.794;2023-04-25T13:35:52;10.10;99.90
15969;DHT22;8085;53.472;9.794;2023-04-25T13:38:22;10.30;99.90
15969;DHT22;8085;53.472;9.794;2023-04-25T13:40:49;10.20;99.90
15969;DHT22;8085;53.472;9.794;2023-04-25T13:43:19;10.20;1.00
15969;DHT22;8085;53.472;9.794;2023-04-25T13:45:47;10.30;1.00
15969;DHT22;8085;53.472;9.794;2023-04-25T13:48:14;10.30;1.00
15969;DHT22;8085;53.472;9.794;2023-04-25T13:50:41;10.60;1.00
15969;DHT22;8085;53.472;9.794;2023-04-25T13:53:08;10.50;1.00
15969;DHT22;8085;53.472;9.794;2023-04-25T13:55:35;10.30;99.90
15969;DHT22;8085;53.472;9.794;2023-04-25T13:58:03;10.40;1.00
15969;DHT22;8085;53.472;9.794;2023-04-25T14:00:39;10.10;1.00
15969;DHT22;8085;53.472;9.794;2023-04-25T14:03:09;9.90;99.90
15969;DHT22;8085;53.472;9.794;2023-04-25T14:05:36;9.60;99.90
15969;DHT22;8085;53.472;9.794;2023-04-25T14:08:08;9.30;99.90
15969;DHT22;8085;53.472;9.794;2023-04-25T14:10:35;9.30;23.50
15969;DHT22;8085;53.472;9.794;2023-04-25T14:13:03;9.30;1.00
15969;DHT22;8085;53.472;9.794;2023-04-25T14:15:33;9.20;1.00
15969;DHT22;8085;53.472;9.794;2023-04-25T14:18:02;9.30;99.90
15969;DHT22;8085;53.472;9.794;2023-04-25T14:20:29;9.70;1.00
15969;DHT22;8085;53.472;9.794;2023-04-25T14:22:56;9.90;72.50
15969;DHT22;8085;53.472;9.794;2023-04-25T14:25:24;10.20;93.10
15969;DHT22;8085;53.472;9.794;2023-04-25T14:27:50;10.10;99.90
15969;DHT22;8085;53.472;9.794;2023-04-25T14:30:18;9.60;60.00
15969;DHT22;8085;53.472;9.794;2023-04-25T14:32:45;9.20;1.00
15969;DHT22;8085;53.472;9.794;2023-04-25T14:35:14;8.80;1.00
15969;DHT22;8085;53.472;9.794;2023-04-25T14:37:41;8.50;99.90
15969;DHT22;8085;53.472;9.794;2023-04-25T14:40:08;8.50;1.00
15969;DHT22;8085;53.472;9.794;2023-04-25T14:42:37;8.70;99.90
15969;DHT22;8085;53.472;9.794;2023-04-25T14:45:06;8.90;1.00
15969;DHT22;8085;53.472;9.794;2023-04-25T14:47:34;9.20;99.90
15969;DHT22;8085;53.472;9.794;2023-04-25T14:50:01;9.20;1.00
15969;DHT22;8085;53.472;9.794;2023-04-25T14:52:30;9.60;99.90
15969;DHT22;8085;53.472;9.794;2023-04-25T14:54:57;10.00;99.90
15969;DHT22;8085;53.472;9.794;2023-04-25T14:57:25;10.50;1.00
15969;DHT22;8085;53.472;9.794;2023-04-25T14:59:52;10.80;99.90
15969;DHT22;8085;53.472;9.794;2023-04-25T15:02:19;10.90;5.60
15969;DHT22;8085;53.472;9.794;2023-04-25T15:04:46;10.50;99.90
15969;DHT22;8085;53.472;9.794;2023-04-25T15:07:13;9.80;99.90
15969;DHT22;8085;53.472;9.794;2023-04-25T15:09:42;9.40;99.90
15969;DHT22;8085;53.472;9.794;2023-04-25T15:12:09;8.80;99.90
15969;DHT22;8085;53.472;9.794;2023-04-25T15:14:36;8.30;1.00
15969;DHT22;8085;53.472;9.794;2023-04-25T15:17:03;8.20;99.90
15969;DHT22;8085;53.472;9.794;2023-04-25T15:19:30;8.20;99.90
15969;DHT22;8085;53.472;9.794;2023-04-25T15:21:56;8.60;84.80
15969;DHT22;8085;53.472;9.794;2023-04-25T15:24:26;9.20;1.00
15969;DHT22;8085;53.472;9.794;2023-04-25T15:26:54;9.50;99.90
15969;DHT22;8085;53.472;9.794;2023-04-25T15:29:22;9.70;1.00
15969;DHT22;8085;53.472;9.794;2023-04-25T15:31:49;9.50;99.90
15969;DHT22;8085;53.472;9.794;2023-04-25T15:34:15;9.40;1.00
15969;DHT22;8085;53.472;9.794;2023-04-25T15:36:42;9.60;99.90
15969;DHT22;8085;53.472;9.794;2023-04-25T15:39:09;10.00;1.00
15969;DHT22;8085;53.472;9.794;2023-04-25T15:41:36;9.80;1.00
15969;DHT22;8085;53.472;9.794;2023-04-25T15:44:05;9.50;1.00
15969;DHT22;8085;53.472;9.794;2023-04-25T15:46:33;9.20;1.00
15969;DHT22;8085;53.472;9.794;2023-04-25T15:49:00;9.00;99.90
15969;DHT22;8085;53.472;9.794;2023-04-25T15:51:27;8.90;1.00
15969;DHT22;8085;53.472;9.794;2023-04-25T15:53:54;8.90;1.00
15969;DHT22;8085;53.472;9.794;2023-04-25T15:56:22;8.40;1.00
15969;DHT22;8085;53.472;9.794;2023-04-25T15:58:49;7.90;1.00
15969;DHT22;8085;53.472;9.794;2023-04-25T16:01:18;7.60;1.00
15969;DHT22;8085;53.472;9.794;2023-04-25T16:03:49;7.20;1.00
15969;DHT22;8085;53.472;9.794;2023-04-25T16:06:16;7.30;1.00
15969;DHT22;8085;53.472;9.794;2023-04-25T16:08:42;7.30;1.00
15969;DHT22;8085;53.472;9.794;2023-04-25T16:11:09;7.60;1.00